createdAt,value
2016-06-06T08:40:02.386Z,1110
2016-06-06T08:40:15.089Z,1110
2016-06-06T08:41:14.920Z,1120
2016-06-06T08:42:15.080Z,1105
2016-06-06T08:43:15.098Z,1090
2016-06-06T08:44:14.960Z,1085
2016-06-06T08:45:15.025Z,1115
2016-06-06T08:46:15.137Z,1110
2016-06-06T08:47:15.140Z,1065
2016-06-06T08:48:15.158Z,1040
2016-06-06T08:49:15.005Z,1065
2016-06-06T08:50:15.179Z,1095
2016-06-06T08:51:15.182Z,1075
2016-06-06T08:52:15.200Z,980
2016-06-06T08:53:14.906Z,995
2016-06-06T08:54:15.221Z,1035
2016-06-06T08:55:15.224Z,1035
2016-06-06T08:56:15.257Z,1030
2016-06-06T08:57:15.260Z,1025
2016-06-06T08:58:15.262Z,1015
2016-06-06T08:59:16.594Z,955
2016-06-06T09:00:15.237Z,950
2016-06-06T09:01:15.287Z,975
2016-06-06T09:02:15.306Z,945
2016-06-06T09:03:15.323Z,985
2016-06-06T09:04:15.326Z,1015
2016-06-06T09:05:15.345Z,1000
2016-06-06T09:06:15.347Z,970
2016-06-06T09:07:15.350Z,960
2016-06-06T09:08:15.367Z,580
2016-06-06T09:09:15.371Z,245
2016-06-06T09:10:15.389Z,230
2016-06-06T09:11:15.408Z,225
2016-06-06T09:12:15.411Z,225
2016-06-06T09:13:15.413Z,225
2016-06-06T09:14:15.463Z,220
2016-06-06T09:15:15.496Z,225
2016-06-06T09:16:15.436Z,240
2016-06-06T09:17:15.471Z,245
2016-06-06T09:18:15.474Z,245
2016-06-06T09:19:15.476Z,240
2016-06-06T09:20:15.338Z,255
2016-06-06T09:21:15.482Z,255
2016-06-06T09:22:15.359Z,245
2016-06-06T09:23:15.502Z,245
2016-06-06T09:24:15.521Z,235
2016-06-06T09:25:15.523Z,225
2016-06-06T09:26:15.526Z,225
2016-06-06T09:27:15.388Z,220
2016-06-06T09:28:15.547Z,235
2016-06-06T09:29:16.221Z,235
2016-06-06T09:30:15.662Z,230
2016-06-06T09:31:15.258Z,230
2016-06-06T09:32:15.573Z,250
2016-06-06T09:33:15.576Z,270
2016-06-06T09:34:15.610Z,280
2016-06-06T09:35:15.613Z,275
2016-06-06T09:36:15.631Z,280
2016-06-06T09:37:15.743Z,255
2016-06-06T09:38:15.620Z,250
2016-06-06T09:39:15.467Z,250
2016-06-06T09:40:15.658Z,235
2016-06-06T09:41:15.645Z,230
2016-06-06T09:42:15.647Z,240
2016-06-06T09:43:15.697Z,250
2016-06-06T09:44:16.777Z,255
2016-06-06T09:45:15.703Z,275
2016-06-06T09:46:15.674Z,295
2016-06-06T09:47:15.708Z,300
2016-06-06T09:48:15.725Z,295
2016-06-06T09:49:15.697Z,290
2016-06-06T09:50:15.699Z,270
2016-06-06T09:51:15.733Z,245
2016-06-06T09:52:15.721Z,255
2016-06-06T09:53:15.724Z,240
2016-06-06T09:54:15.883Z,245
2016-06-06T09:55:15.744Z,245
2016-06-06T09:56:15.747Z,240
2016-06-06T09:57:15.750Z,255
2016-06-06T09:58:15.752Z,260
2016-06-06T09:59:15.802Z,245
2016-06-06T10:00:15.805Z,245
2016-06-06T10:01:15.793Z,245
2016-06-06T10:02:15.795Z,235
2016-06-06T10:03:15.860Z,190
2016-06-06T10:04:15.800Z,185
2016-06-06T10:05:15.803Z,205
2016-06-06T10:06:15.821Z,225
2016-06-06T10:07:15.824Z,260
2016-06-06T10:08:15.811Z,260
2016-06-06T10:09:15.845Z,260
2016-06-06T10:10:15.691Z,225
2016-06-06T10:11:15.695Z,220
2016-06-06T10:12:16.009Z,230
2016-06-06T10:13:15.855Z,220
2016-06-06T10:14:16.109Z,190
2016-06-06T10:15:15.861Z,195
2016-06-06T10:16:15.880Z,195
2016-06-06T10:17:15.882Z,205
2016-06-06T10:18:15.885Z,225
2016-06-06T10:19:15.903Z,225
2016-06-06T10:20:15.891Z,225
2016-06-06T10:21:15.908Z,245
2016-06-06T10:22:15.911Z,240
2016-06-06T10:23:15.930Z,240
2016-06-06T10:24:15.916Z,240
2016-06-06T10:25:15.950Z,255
2016-06-06T10:26:15.797Z,220
2016-06-06T10:27:15.940Z,185
2016-06-06T10:28:15.942Z,200
2016-06-06T10:29:15.977Z,250
2016-06-06T10:30:16.510Z,250
2016-06-06T10:31:15.966Z,225
2016-06-06T10:32:15.968Z,230
2016-06-06T10:33:15.987Z,225
2016-06-06T10:34:15.990Z,200
2016-06-06T10:35:15.993Z,190
2016-06-06T10:36:16.011Z,195
2016-06-06T10:37:16.014Z,180
2016-06-06T10:38:16.016Z,160
2016-06-06T10:39:16.020Z,150
2016-06-06T10:40:16.022Z,155
2016-06-06T10:41:16.025Z,150
2016-06-06T10:42:16.027Z,145
2016-06-06T10:43:16.045Z,135
2016-06-06T10:44:16.798Z,155
2016-06-06T10:45:16.067Z,165
2016-06-06T10:46:16.053Z,170
2016-06-06T10:47:16.072Z,165
2016-06-06T10:48:16.075Z,170
2016-06-06T10:49:16.093Z,175
2016-06-06T10:50:16.080Z,180
2016-06-06T10:51:16.083Z,170
2016-06-06T10:52:16.102Z,185
2016-06-06T10:53:16.135Z,200
2016-06-06T10:54:15.966Z,210
2016-06-06T10:55:16.110Z,185
2016-06-06T10:56:16.112Z,190
2016-06-06T10:57:16.130Z,195
2016-06-06T10:58:16.117Z,185
2016-06-06T10:59:16.385Z,160
2016-06-06T11:00:17.326Z,145
2016-06-06T11:01:16.141Z,150
2016-06-06T11:02:16.143Z,140
2016-06-06T11:03:16.162Z,145
2016-06-06T11:04:16.165Z,150
2016-06-06T11:05:16.168Z,160
2016-06-06T11:06:16.171Z,140
2016-06-06T11:07:16.017Z,145
2016-06-06T11:08:16.175Z,155
2016-06-06T11:09:16.178Z,175
2016-06-06T11:10:16.196Z,170
2016-06-06T11:11:16.184Z,190
2016-06-06T11:12:16.201Z,210
2016-06-06T11:13:16.204Z,210
2016-06-06T11:14:16.582Z,225
2016-06-06T11:15:17.241Z,230
2016-06-06T11:16:16.244Z,195
2016-06-06T11:17:16.230Z,200
2016-06-06T11:18:16.234Z,180
2016-06-06T11:19:16.002Z,195
2016-06-06T11:20:16.130Z,200
2016-06-06T11:21:16.148Z,190
2016-06-06T11:22:16.135Z,185
2016-06-06T11:23:16.153Z,165
2016-06-06T11:24:16.156Z,180
2016-06-06T11:25:16.018Z,175
2016-06-06T11:26:16.177Z,170
2016-06-06T11:27:16.180Z,170
2016-06-06T11:28:16.182Z,180
2016-06-06T11:29:16.091Z,155
2016-06-06T11:30:16.282Z,140
2016-06-06T11:31:16.190Z,120
2016-06-06T11:32:16.209Z,130
2016-06-06T11:33:16.055Z,130
2016-06-06T11:34:16.198Z,120
2016-06-06T11:35:16.232Z,140
2016-06-06T11:36:16.251Z,155
2016-06-06T11:37:16.238Z,160
2016-06-06T11:38:16.225Z,165
2016-06-06T11:39:16.149Z,175
2016-06-06T11:40:16.136Z,175
2016-06-06T11:41:16.139Z,170
2016-06-06T11:42:16.173Z,155
2016-06-06T11:43:16.160Z,135
2016-06-06T11:44:16.725Z,135
2016-06-06T11:45:17.337Z,130
2016-06-06T11:46:16.168Z,130
2016-06-06T11:47:16.170Z,120
2016-06-06T11:48:16.017Z,120
2016-06-06T11:49:16.020Z,120
2016-06-06T11:50:16.179Z,120
2016-06-06T11:51:16.181Z,120
2016-06-06T11:52:16.200Z,125
2016-06-06T11:53:16.062Z,125
2016-06-06T11:54:16.205Z,120
2016-06-06T11:55:16.208Z,125
2016-06-06T11:56:16.211Z,125
2016-06-06T11:57:16.213Z,125
2016-06-06T11:58:16.075Z,125
2016-06-06T11:59:16.281Z,130
2016-06-06T12:00:16.675Z,125
2016-06-06T12:01:16.083Z,125
2016-06-06T12:02:16.242Z,125
2016-06-06T12:03:16.246Z,125
2016-06-06T12:04:16.264Z,130
2016-06-06T12:05:16.282Z,130
2016-06-06T12:06:16.112Z,125
2016-06-06T12:07:16.288Z,120
2016-06-06T12:08:23.540Z,120
2016-06-06T12:10:53.312Z,120
2016-06-06T12:11:05.765Z,120
2016-06-06T12:12:05.876Z,115
2016-06-06T12:13:06.176Z,110
2016-06-06T12:14:07.116Z,110
2016-06-06T12:15:06.134Z,110
2016-06-06T12:16:05.996Z,110
2016-06-06T12:17:06.015Z,110
2016-06-06T12:18:05.845Z,110
2016-06-06T12:19:06.004Z,115
2016-06-06T12:20:05.851Z,120
2016-06-06T12:21:06.025Z,125
2016-06-06T12:22:06.012Z,130
2016-06-06T12:23:06.031Z,125
2016-06-06T12:24:06.049Z,120
2016-06-06T12:25:06.052Z,120
2016-06-06T12:26:06.054Z,120
2016-06-06T12:27:06.041Z,130
2016-06-06T12:28:06.060Z,120
2016-06-06T12:29:06.468Z,120
2016-06-06T12:30:05.924Z,115
2016-06-06T12:31:06.068Z,115
2016-06-06T12:32:05.914Z,115
2016-06-06T12:33:06.089Z,115
2016-06-06T12:34:06.076Z,115
2016-06-06T12:35:06.078Z,115
2016-06-06T12:36:06.082Z,110
2016-06-06T12:37:06.099Z,110
2016-06-06T12:38:06.118Z,105
2016-06-06T12:39:06.104Z,105
2016-06-06T12:40:06.107Z,105
2016-06-06T12:41:06.157Z,105
2016-06-06T12:42:05.957Z,100
2016-06-06T12:43:05.959Z,95
2016-06-06T12:44:06.369Z,100
2016-06-06T12:45:06.121Z,100
2016-06-06T12:46:06.123Z,115
2016-06-06T12:47:06.142Z,115
2016-06-06T12:48:06.145Z,115
2016-06-06T12:49:06.007Z,115
2016-06-06T12:50:06.166Z,100
2016-06-06T12:51:06.153Z,110
2016-06-06T12:52:06.156Z,105
2016-06-06T12:53:06.174Z,105
2016-06-06T12:54:06.177Z,105
2016-06-06T12:55:06.023Z,105
2016-06-06T12:56:06.042Z,110
2016-06-06T12:57:06.200Z,110
2016-06-06T12:58:06.187Z,110
2016-06-06T12:59:06.596Z,110
2016-06-06T13:00:06.755Z,105
2016-06-06T13:01:06.211Z,100
2016-06-06T13:02:06.199Z,100
2016-06-06T13:03:06.216Z,100
2016-06-06T13:04:06.235Z,100
2016-06-06T13:05:06.237Z,100
2016-06-06T13:06:06.225Z,100
2016-06-06T13:07:06.243Z,100
2016-06-06T13:08:06.229Z,100
2016-06-06T13:09:06.077Z,100
2016-06-06T13:10:06.235Z,100
2016-06-06T13:11:06.238Z,95
2016-06-06T13:12:06.256Z,95
2016-06-06T13:13:06.259Z,95
2016-06-06T13:14:07.559Z,95
2016-06-06T13:15:06.124Z,95
2016-06-06T13:16:06.267Z,95
2016-06-06T13:17:06.285Z,95
2016-06-06T13:18:06.272Z,95
2016-06-06T13:19:06.275Z,100
2016-06-06T13:20:06.137Z,100
2016-06-06T13:21:06.140Z,105
2016-06-06T13:22:06.298Z,105
2016-06-06T13:23:06.301Z,100
2016-06-06T13:24:06.320Z,100
2016-06-06T13:25:06.306Z,95
2016-06-06T13:26:06.153Z,100
2016-06-06T13:27:06.328Z,100
2016-06-06T13:28:06.330Z,100
2016-06-06T13:29:07.021Z,100
2016-06-06T13:30:06.336Z,100
2016-06-06T13:31:06.338Z,105
2016-06-06T13:32:06.325Z,105
2016-06-06T13:33:06.344Z,115
2016-06-06T13:34:06.346Z,110
2016-06-06T13:35:06.365Z,110
2016-06-06T13:36:06.352Z,110
2016-06-06T13:37:06.355Z,115
2016-06-06T13:38:06.357Z,115
2016-06-06T13:39:06.360Z,115
2016-06-06T13:40:06.363Z,110
2016-06-06T13:41:06.381Z,110
2016-06-06T13:42:06.368Z,110
2016-06-06T13:43:06.229Z,110
2016-06-06T13:44:07.546Z,110
2016-06-06T13:45:06.393Z,110
2016-06-06T13:46:06.395Z,110
2016-06-06T13:47:06.272Z,105
2016-06-06T13:48:06.401Z,105
2016-06-06T13:49:06.418Z,100
2016-06-06T13:50:06.405Z,95
2016-06-06T13:51:06.408Z,95
2016-06-06T13:52:06.426Z,90
2016-06-06T13:53:06.429Z,90
2016-06-06T13:54:06.431Z,90
2016-06-06T13:55:06.434Z,90
2016-06-06T13:56:06.453Z,90
2016-06-06T13:57:06.439Z,90
2016-06-06T13:58:06.442Z,90
2016-06-06T13:59:06.179Z,90
2016-06-06T14:00:06.463Z,90
2016-06-06T14:01:06.482Z,90
2016-06-06T14:02:06.469Z,80
2016-06-06T14:03:06.472Z,80
2016-06-06T14:04:06.490Z,75
2016-06-06T14:05:06.477Z,85
2016-06-06T14:06:06.496Z,85
2016-06-06T14:07:06.483Z,85
2016-06-06T14:08:06.501Z,85
2016-06-06T14:09:06.504Z,85
2016-06-06T14:10:06.349Z,80
2016-06-06T14:11:06.352Z,80
2016-06-06T14:12:06.496Z,75
2016-06-06T14:13:06.686Z,80
2016-06-06T14:14:07.438Z,80
2016-06-06T14:15:06.238Z,80
2016-06-06T14:16:06.382Z,85
2016-06-06T14:17:06.541Z,85
2016-06-06T14:18:06.528Z,85
2016-06-06T14:19:06.389Z,85
2016-06-06T14:20:06.548Z,85
2016-06-06T14:21:06.551Z,75
2016-06-06T14:22:06.553Z,75
2016-06-06T14:23:06.572Z,70
2016-06-06T14:24:06.262Z,70
2016-06-06T14:25:06.406Z,70
2016-06-06T14:26:06.565Z,70
2016-06-06T14:27:06.598Z,70
2016-06-06T14:28:06.569Z,70
2016-06-06T14:29:07.214Z,70
2016-06-06T14:30:06.450Z,70
2016-06-06T14:31:06.577Z,70
2016-06-06T14:32:06.441Z,70
2016-06-06T14:33:06.583Z,70
2016-06-06T14:34:06.602Z,70
2016-06-06T14:35:06.604Z,65
2016-06-06T14:36:06.607Z,70
2016-06-06T14:37:06.625Z,75
2016-06-06T14:38:06.628Z,75
2016-06-06T14:39:06.630Z,70
2016-06-06T14:40:06.619Z,75
2016-06-06T14:41:06.621Z,75
2016-06-06T14:42:06.638Z,70
2016-06-06T14:43:06.626Z,70
2016-06-06T14:44:06.957Z,70
2016-06-06T14:45:06.726Z,75
2016-06-06T14:46:06.649Z,75
2016-06-06T14:47:06.668Z,80
2016-06-06T14:48:06.498Z,85
2016-06-06T14:49:06.658Z,85
2016-06-06T14:50:06.660Z,85
2016-06-06T14:51:06.662Z,85
2016-06-06T14:52:06.525Z,85
2016-06-06T14:53:06.684Z,85
2016-06-06T14:54:06.670Z,80
2016-06-06T14:55:06.689Z,85
2016-06-06T14:56:06.692Z,85
2016-06-06T14:57:06.695Z,85
2016-06-06T14:58:06.697Z,85
2016-06-06T14:59:06.701Z,85
2016-06-06T15:00:07.344Z,85
2016-06-06T15:01:06.706Z,80
2016-06-06T15:02:06.739Z,85
2016-06-06T15:03:06.711Z,85
2016-06-06T15:04:06.714Z,85
2016-06-06T15:05:06.419Z,90
2016-06-06T15:06:06.719Z,95
2016-06-06T15:07:06.753Z,95
2016-06-06T15:08:06.740Z,95
2016-06-06T15:09:06.728Z,95
2016-06-06T15:10:06.746Z,95
2016-06-06T15:11:06.748Z,95
2016-06-06T15:12:06.751Z,90
2016-06-06T15:13:06.597Z,90
2016-06-06T15:14:06.756Z,85
2016-06-06T15:15:07.634Z,90
2016-06-06T15:16:06.762Z,90
2016-06-06T15:17:06.764Z,90
2016-06-06T15:18:06.767Z,90
2016-06-06T15:19:06.770Z,95
2016-06-06T15:20:06.788Z,100
2016-06-06T15:21:06.791Z,105
2016-06-06T15:22:06.778Z,110
2016-06-06T15:23:06.796Z,115
2016-06-06T15:24:07.002Z,115
2016-06-06T15:25:06.787Z,115
2016-06-06T15:26:06.804Z,115
2016-06-06T15:27:06.806Z,115
2016-06-06T15:28:06.809Z,115
2016-06-06T15:29:06.828Z,115
2016-06-06T15:30:07.737Z,120
2016-06-06T15:31:07.428Z,125
2016-06-06T15:32:06.820Z,130
2016-06-06T15:33:06.823Z,130
2016-06-06T15:34:06.841Z,120
2016-06-06T15:35:06.829Z,105
2016-06-06T15:36:06.691Z,95
2016-06-06T15:37:06.834Z,90
2016-06-06T15:38:06.836Z,80
2016-06-06T15:39:06.839Z,80
2016-06-06T15:40:06.858Z,80
2016-06-06T15:41:06.860Z,75
2016-06-06T15:42:06.863Z,75
2016-06-06T15:43:06.865Z,70
2016-06-06T15:44:06.868Z,70
2016-06-06T15:45:07.308Z,65
2016-06-06T15:46:06.890Z,65
2016-06-06T15:47:06.893Z,65
2016-06-06T15:48:06.723Z,65
2016-06-06T15:49:06.898Z,65
2016-06-06T15:50:06.901Z,65
2016-06-06T15:51:06.904Z,70
2016-06-06T15:52:06.906Z,65
2016-06-06T15:53:06.909Z,65
2016-06-06T15:54:06.911Z,65
2016-06-06T15:55:06.929Z,65
2016-06-06T15:56:06.917Z,65
2016-06-06T15:57:06.762Z,65
2016-06-06T15:58:06.922Z,65
2016-06-06T15:59:06.800Z,65
2016-06-06T16:00:07.756Z,60
2016-06-06T16:01:06.930Z,60
2016-06-06T16:02:06.792Z,60
2016-06-06T16:03:06.936Z,60
2016-06-06T16:04:06.953Z,60
2016-06-06T16:05:06.956Z,65
2016-06-06T16:06:06.959Z,65
2016-06-06T16:07:06.992Z,70
2016-06-06T16:08:06.824Z,70
2016-06-06T16:09:06.967Z,70
2016-06-06T16:10:06.970Z,70
2016-06-06T16:11:06.988Z,65
2016-06-06T16:12:06.835Z,70
2016-06-06T16:13:07.166Z,70
2016-06-06T16:14:06.981Z,70
2016-06-06T16:15:08.077Z,70
2016-06-06T16:16:06.986Z,70
2016-06-06T16:17:06.832Z,70
2016-06-06T16:18:06.851Z,70
2016-06-06T16:19:07.010Z,70
2016-06-06T16:20:07.013Z,70
2016-06-06T16:21:06.905Z,70
2016-06-06T16:22:07.018Z,70
2016-06-06T16:23:07.036Z,70
2016-06-06T16:24:07.038Z,70
2016-06-06T16:25:07.026Z,70
2016-06-06T16:26:07.029Z,70
2016-06-06T16:27:07.031Z,70
2016-06-06T16:28:07.034Z,70
2016-06-06T16:29:07.037Z,70
2016-06-06T16:30:07.289Z,70
2016-06-06T16:31:07.042Z,70
2016-06-06T16:32:07.045Z,70
2016-06-06T16:33:07.062Z,70
2016-06-06T16:34:07.081Z,70
2016-06-06T16:35:07.068Z,70
2016-06-06T16:36:07.056Z,70
2016-06-06T16:37:07.073Z,70
2016-06-06T16:38:07.061Z,70
2016-06-06T16:39:07.079Z,70
2016-06-06T16:40:07.081Z,70
2016-06-06T16:41:06.928Z,70
2016-06-06T16:42:07.087Z,70
2016-06-06T16:43:07.094Z,70
2016-06-06T16:44:07.102Z,70
2016-06-06T16:45:07.609Z,70
2016-06-06T16:46:06.977Z,75
2016-06-06T16:47:07.125Z,75
2016-06-06T16:48:07.146Z,75
2016-06-06T16:49:06.838Z,75
2016-06-06T16:50:07.153Z,70
2016-06-06T16:51:07.158Z,70
2016-06-06T16:52:07.146Z,70
2016-06-06T16:53:07.010Z,75
2016-06-06T16:54:07.169Z,75
2016-06-06T16:55:07.157Z,75
2016-06-06T16:56:07.160Z,75
2016-06-06T16:57:07.024Z,75
2016-06-06T16:58:07.183Z,75
2016-06-06T16:59:07.029Z,75
2016-06-06T17:00:08.455Z,75
2016-06-06T17:01:07.208Z,80
2016-06-06T17:02:07.195Z,75
2016-06-06T17:03:07.198Z,75
2016-06-06T17:04:07.216Z,75
2016-06-06T17:05:07.219Z,75
2016-06-06T17:06:07.205Z,75
2016-06-06T17:07:07.209Z,75
2016-06-06T17:08:07.211Z,75
2016-06-06T17:09:07.214Z,75
2016-06-06T17:10:07.233Z,75
2016-06-06T17:11:07.078Z,75
2016-06-06T17:12:07.238Z,80
2016-06-06T17:13:07.241Z,80
2016-06-06T17:14:07.227Z,80
2016-06-06T17:15:08.027Z,80
2016-06-06T17:16:07.249Z,80
2016-06-06T17:17:07.235Z,80
2016-06-06T17:18:07.254Z,80
2016-06-06T17:19:07.272Z,80
2016-06-06T17:20:07.259Z,80
2016-06-06T17:21:07.277Z,75
2016-06-06T17:22:07.265Z,75
2016-06-06T17:23:07.268Z,75
2016-06-06T17:24:07.270Z,75
2016-06-06T17:25:07.273Z,70
2016-06-06T17:26:07.275Z,70
2016-06-06T17:27:07.278Z,70
2016-06-06T17:28:07.140Z,70
2016-06-06T17:29:07.298Z,70
2016-06-06T17:30:08.005Z,70
2016-06-06T17:31:07.304Z,70
2016-06-06T17:32:07.306Z,70
2016-06-06T17:33:07.310Z,70
2016-06-06T17:34:07.312Z,70
2016-06-06T17:35:07.142Z,70
2016-06-06T17:36:07.317Z,70
2016-06-06T17:37:07.320Z,70
2016-06-06T17:38:07.307Z,70
2016-06-06T17:39:07.326Z,70
2016-06-06T17:40:07.172Z,70
2016-06-06T17:41:07.330Z,70
2016-06-06T17:42:07.334Z,70
2016-06-06T17:43:07.352Z,65
2016-06-06T17:44:07.199Z,65
2016-06-06T17:45:07.591Z,70
2016-06-06T17:46:07.345Z,70
2016-06-06T17:47:07.347Z,70
2016-06-06T17:48:07.365Z,70
2016-06-06T17:49:07.369Z,70
2016-06-06T17:50:07.199Z,70
2016-06-06T17:51:07.373Z,70
2016-06-06T17:52:07.392Z,70
2016-06-06T17:53:07.363Z,70
2016-06-06T17:54:07.366Z,65
2016-06-06T17:55:07.384Z,65
2016-06-06T17:56:07.387Z,65
2016-06-06T17:57:07.390Z,65
2016-06-06T17:58:07.392Z,65
2016-06-06T17:59:07.395Z,60
2016-06-06T18:00:07.757Z,60
2016-06-06T18:01:07.401Z,60
2016-06-06T18:02:07.403Z,60
2016-06-06T18:03:07.406Z,60
2016-06-06T18:04:07.409Z,60
2016-06-06T18:05:07.411Z,55
2016-06-06T18:06:07.258Z,55
2016-06-06T18:07:07.417Z,55
2016-06-06T18:08:07.435Z,55
2016-06-06T18:09:07.422Z,50
2016-06-06T18:10:07.441Z,50
2016-06-06T18:11:07.443Z,50
2016-06-06T18:12:07.446Z,50
2016-06-06T18:13:07.699Z,50
2016-06-06T18:14:07.452Z,50
2016-06-06T18:15:07.579Z,45
2016-06-06T18:16:07.457Z,45
2016-06-06T18:17:07.319Z,45
2016-06-06T18:18:07.477Z,45
2016-06-06T18:19:07.465Z,40
2016-06-06T18:20:07.468Z,40
2016-06-06T18:21:07.471Z,40
2016-06-06T18:22:07.473Z,40
2016-06-06T18:23:07.476Z,35
2016-06-06T18:24:07.478Z,35
2016-06-06T18:25:07.482Z,35
2016-06-06T18:26:07.498Z,35
2016-06-06T18:27:07.486Z,35
2016-06-06T18:28:07.489Z,30
2016-06-06T18:29:07.507Z,30
2016-06-06T18:30:08.040Z,30
2016-06-06T18:31:07.373Z,30
2016-06-06T18:32:07.500Z,30
2016-06-06T18:33:07.361Z,30
2016-06-06T18:34:07.520Z,30
2016-06-06T18:35:07.523Z,25
2016-06-06T18:36:07.370Z,25
2016-06-06T18:37:07.372Z,25
2016-06-06T18:38:07.375Z,25
2016-06-06T18:39:07.550Z,20
2016-06-06T18:40:07.521Z,20
2016-06-06T18:41:07.539Z,20
2016-06-06T18:42:07.542Z,20
2016-06-06T18:43:07.544Z,20
2016-06-06T18:44:07.548Z,20
2016-06-06T18:45:07.847Z,20
2016-06-06T18:46:07.553Z,15
2016-06-06T18:47:07.571Z,15
2016-06-06T18:48:07.558Z,15
2016-06-06T18:49:07.561Z,15
2016-06-06T18:50:07.563Z,15
2016-06-06T18:51:07.582Z,15
2016-06-06T18:52:07.569Z,10
2016-06-06T18:53:07.416Z,10
2016-06-06T18:54:07.418Z,10
2016-06-06T18:55:07.576Z,10
2016-06-06T18:56:07.580Z,10
2016-06-06T18:57:07.582Z,10
2016-06-06T18:58:07.585Z,10
2016-06-06T18:59:07.448Z,10
2016-06-06T19:00:07.934Z,5
2016-06-06T19:01:07.608Z,5
2016-06-06T19:02:07.611Z,5
2016-06-06T19:03:07.598Z,5
2016-06-06T19:04:07.601Z,5
2016-06-06T19:05:07.619Z,5
2016-06-06T19:06:07.606Z,5
2016-06-06T19:07:07.609Z,5
2016-06-06T19:08:07.628Z,5
2016-06-06T19:09:09.880Z,5
2016-06-06T19:10:07.617Z,5
2016-06-06T19:11:07.620Z,5
2016-06-06T19:12:07.623Z,5
2016-06-06T19:13:07.641Z,0
2016-06-06T19:14:07.644Z,0
2016-06-06T19:15:07.646Z,0
2016-06-06T19:16:07.650Z,0
2016-06-06T19:17:07.683Z,0
2016-06-06T19:18:07.639Z,0
2016-06-06T19:19:07.657Z,0
2016-06-06T19:20:07.660Z,0
2016-06-06T19:21:07.647Z,0
2016-06-06T19:22:07.666Z,0
2016-06-06T19:23:07.668Z,0
2016-06-06T19:24:07.655Z,0
2016-06-06T19:25:07.673Z,0
2016-06-06T19:26:07.535Z,0
2016-06-06T19:27:07.663Z,0
2016-06-06T19:28:07.525Z,0
2016-06-06T19:29:07.528Z,0
2016-06-06T19:30:07.531Z,0
2016-06-06T19:31:07.690Z,0
2016-06-06T19:32:07.676Z,0
2016-06-06T19:33:07.710Z,0
2016-06-06T19:34:07.698Z,0
2016-06-06T19:35:08.231Z,0
2016-06-06T19:36:07.718Z,0
2016-06-06T19:37:07.550Z,0
2016-06-06T19:38:07.693Z,0
2016-06-06T19:39:07.711Z,0
2016-06-06T19:40:07.714Z,0
2016-06-06T19:41:07.561Z,0
2016-06-06T19:42:07.734Z,0
2016-06-06T19:43:07.566Z,0
2016-06-06T19:44:07.725Z,0
2016-06-06T19:45:07.727Z,0
2016-06-06T19:46:07.730Z,0
2016-06-06T19:47:07.733Z,0
2016-06-06T19:48:07.719Z,0
2016-06-06T19:49:07.769Z,0
2016-06-06T19:50:07.740Z,0
2016-06-06T19:51:07.743Z,0
2016-06-06T19:52:07.746Z,0
2016-06-06T19:53:07.764Z,0
2016-06-06T19:54:07.595Z,0
2016-06-06T19:55:07.754Z,0
2016-06-06T19:56:07.757Z,0
2016-06-06T19:57:07.760Z,0
2016-06-06T19:58:07.777Z,0
2016-06-06T19:59:07.609Z,0
2016-06-06T20:00:07.751Z,0
2016-06-06T20:01:07.770Z,0
2016-06-06T20:02:07.757Z,0
2016-06-06T20:03:07.775Z,0
2016-06-06T20:04:07.778Z,0
2016-06-06T20:05:08.126Z,0
2016-06-06T20:06:07.845Z,0
2016-06-06T20:07:07.787Z,0
2016-06-06T20:08:07.789Z,0
2016-06-06T20:09:07.807Z,0
2016-06-06T20:10:07.778Z,0
2016-06-06T20:11:07.797Z,0
2016-06-06T20:12:07.784Z,0
2016-06-06T20:13:07.802Z,0
2016-06-06T20:14:07.336Z,0
2016-06-06T20:15:07.652Z,0
2016-06-06T20:16:07.654Z,0
2016-06-06T20:17:07.657Z,0
2016-06-06T20:18:07.800Z,0
2016-06-06T20:19:07.803Z,0
2016-06-06T20:20:08.040Z,0
2016-06-06T20:21:07.950Z,0
2016-06-06T20:22:07.827Z,0
2016-06-06T20:23:07.829Z,0
2016-06-06T20:24:07.832Z,0
2016-06-06T20:25:07.835Z,0
2016-06-06T20:26:07.837Z,0
2016-06-06T20:27:07.824Z,0
2016-06-06T20:28:07.827Z,0
2016-06-06T20:29:07.830Z,0
2016-06-06T20:30:07.832Z,0
2016-06-06T20:31:07.835Z,0
2016-06-06T20:32:07.838Z,0
2016-06-06T20:33:07.701Z,0
2016-06-06T20:34:07.860Z,0
2016-06-06T20:35:07.877Z,0
2016-06-06T20:36:08.161Z,0
2016-06-06T20:37:07.867Z,0
2016-06-06T20:38:07.854Z,0
2016-06-06T20:39:07.872Z,0
2016-06-06T20:40:07.859Z,0
2016-06-06T20:41:07.862Z,0
2016-06-06T20:42:07.865Z,0
2016-06-06T20:43:07.883Z,0
2016-06-06T20:44:07.870Z,0
2016-06-06T20:45:07.872Z,0
2016-06-06T20:46:07.719Z,0
2016-06-06T20:47:07.894Z,0
2016-06-06T20:48:07.881Z,0
2016-06-06T20:49:07.883Z,0
2016-06-06T20:50:08.574Z,0
2016-06-06T20:51:08.357Z,0
2016-06-06T20:52:07.891Z,0
2016-06-06T20:53:07.894Z,0
2016-06-06T20:54:07.897Z,0
2016-06-06T20:55:07.915Z,0
2016-06-06T20:56:07.902Z,0
2016-06-06T20:57:07.905Z,0
2016-06-06T20:58:07.908Z,0
2016-06-06T20:59:07.910Z,0
2016-06-06T21:00:07.913Z,0
2016-06-06T21:01:07.932Z,0
2016-06-06T21:02:07.919Z,0
2016-06-06T21:03:07.922Z,0
2016-06-06T21:04:07.783Z,0
2016-06-06T21:05:08.145Z,0
2016-06-06T21:06:07.930Z,0
2016-06-06T21:07:07.917Z,0
2016-06-06T21:08:07.919Z,0
2016-06-06T21:09:07.937Z,0
2016-06-06T21:10:07.784Z,0
2016-06-06T21:11:07.928Z,0
2016-06-06T21:12:07.945Z,0
2016-06-06T21:13:07.948Z,0
2016-06-06T21:14:07.951Z,0
2016-06-06T21:15:07.954Z,0
2016-06-06T21:16:07.972Z,0
2016-06-06T21:17:07.959Z,0
2016-06-06T21:18:07.789Z,0
2016-06-06T21:19:07.793Z,0
2016-06-06T21:20:08.169Z,0
2016-06-06T21:21:07.829Z,0
2016-06-06T21:22:07.957Z,0
2016-06-06T21:23:07.960Z,0
2016-06-06T21:24:07.962Z,0
2016-06-06T21:25:07.980Z,0
2016-06-06T21:26:07.968Z,0
2016-06-06T21:27:07.971Z,0
2016-06-06T21:28:07.973Z,0
2016-06-06T21:29:07.976Z,0
2016-06-06T21:30:07.979Z,0
2016-06-06T21:31:07.981Z,0
2016-06-06T21:32:07.827Z,0
2016-06-06T21:33:07.829Z,0
2016-06-06T21:34:07.989Z,0
2016-06-06T21:35:07.992Z,0
2016-06-06T21:36:08.041Z,0
2016-06-06T21:37:07.997Z,0
2016-06-06T21:38:07.984Z,0
2016-06-06T21:39:09.956Z,0
2016-06-06T21:40:07.849Z,0
2016-06-06T21:41:07.992Z,0
2016-06-06T21:42:07.995Z,0
2016-06-06T21:43:08.013Z,0
2016-06-06T21:44:07.859Z,0
2016-06-06T21:45:08.003Z,0
2016-06-06T21:46:08.021Z,0
2016-06-06T21:47:07.852Z,0
2016-06-06T21:48:08.011Z,0
2016-06-06T21:49:08.030Z,0
2016-06-06T21:50:08.047Z,0
2016-06-06T21:51:08.941Z,0
2016-06-06T21:52:08.038Z,0
2016-06-06T21:53:07.884Z,0
2016-06-06T21:54:08.027Z,0
2016-06-06T21:55:08.030Z,0
2016-06-06T21:56:07.876Z,0
2016-06-06T21:57:08.035Z,0
2016-06-06T21:58:08.038Z,0
2016-06-06T21:59:07.885Z,0
2016-06-06T22:00:08.043Z,0
2016-06-06T22:01:08.030Z,0
2016-06-06T22:02:08.033Z,0
2016-06-06T22:03:08.036Z,0
2016-06-06T22:04:08.054Z,0
2016-06-06T22:05:08.651Z,0
2016-06-06T22:06:08.246Z,0
2016-06-06T22:07:07.906Z,0
2016-06-06T22:08:08.065Z,0
2016-06-06T22:09:08.068Z,0
2016-06-06T22:10:08.054Z,0
2016-06-06T22:11:08.057Z,0
2016-06-06T22:12:08.060Z,0
2016-06-06T22:13:08.220Z,0
2016-06-06T22:14:08.065Z,0
2016-06-06T22:15:08.068Z,0
2016-06-06T22:16:08.071Z,0
2016-06-06T22:17:08.089Z,0
2016-06-06T22:18:08.247Z,0
2016-06-06T22:19:09.111Z,0
2016-06-06T22:20:08.081Z,0
2016-06-06T22:21:08.069Z,0
2016-06-06T22:22:08.071Z,0
2016-06-06T22:23:08.105Z,0
2016-06-06T22:24:08.077Z,0
2016-06-06T22:25:08.080Z,0
2016-06-06T22:26:08.082Z,0
2016-06-06T22:27:08.100Z,0
2016-06-06T22:28:08.102Z,0
2016-06-06T22:29:08.105Z,0
2016-06-06T22:30:08.108Z,0
2016-06-06T22:31:08.096Z,0
2016-06-06T22:32:08.099Z,0
2016-06-06T22:33:08.663Z,0
2016-06-06T22:34:08.479Z,0
2016-06-06T22:35:08.107Z,0
2016-06-06T22:36:08.109Z,0
2016-06-06T22:37:08.112Z,0
2016-06-06T22:38:08.115Z,0
2016-06-06T22:39:07.960Z,0
2016-06-06T22:40:07.979Z,0
2016-06-06T22:41:08.138Z,0
2016-06-06T22:42:08.125Z,0
2016-06-06T22:43:08.128Z,0
2016-06-06T22:44:08.114Z,0
2016-06-06T22:45:07.961Z,0
2016-06-06T22:46:08.120Z,0
2016-06-06T22:47:08.123Z,0
2016-06-06T22:48:08.142Z,0
2016-06-06T22:49:08.128Z,0
2016-06-06T22:50:08.724Z,0
2016-06-06T22:51:08.414Z,0